Create Tblcommutelog Verified Points Advance Search
| # | Trip ID | Id Commuter | Trip Date | Trip Num | Current Lat | Current Lng | Delta Distance | Current Time | Activity | Activity Confidence | Current Speed | |
|---|---|---|---|---|---|---|---|---|---|---|---|---|
| 69901 | 251029_788812_16657534_1526 | 788812 | (not set) | (not set) | 38.907732258201 | -77.041644190678 | 0.8694 | 2025-10-29 15:42:27 | unknown | 100 | 3.4332615090257 | |
| 69902 | 251029_786078_16654342_1531 | 786078 | (not set) | (not set) | 39.348463187239 | -76.549353965035 | 3.3291 | 2025-10-29 15:43:05 | in_vehicle | 100 | 4.9844877377131 | |
| 69903 | 251029_786079_16654343_1532 | 786079 | (not set) | (not set) | 39.350248947724 | -76.54560311036 | 3.5222 | 2025-10-29 15:43:35 | unknown | 100 | 5.4941124929591 | |
| 69904 | 251029_786079_16654343_1532 | 786079 | (not set) | (not set) | 39.352983350962 | -76.542582096953 | 3.784 | 2025-10-29 15:44:11 | unknown | 100 | 4.9219022414548 | |
| 69905 | 251029_780809_16648486_1509 | 780809 | (not set) | (not set) | 38.915753936206 | -77.191145311474 | 9.5354 | 2025-10-29 15:44:42 | in_vehicle | 100 | 12.642270244173 | |
| 69906 | 251029_788812_16657534_1526 | 788812 | (not set) | (not set) | 38.912154537284 | -77.040902179248 | 1.1871 | 2025-10-29 15:45:28 | unknown | 100 | 3.6210179978006 | |
| 69907 | 251029_780809_16648486_1509 | 780809 | (not set) | (not set) | 38.928114492576 | -77.204193920001 | 10.7195 | 2025-10-29 15:45:59 | in_vehicle | 100 | 9.7454558459324 | |
| 69908 | 251029_783924_16651731_1501 | 783924 | (not set) | (not set) | 38.538651685612 | -77.350736945176 | 33.8167 | 2025-10-29 15:46:30 | in_vehicle | 100 | 14.18455568768 | |
| 69909 | 251029_783924_16651731_1501 | 783924 | (not set) | (not set) | 38.530902188279 | -77.359724671346 | 34.5397 | 2025-10-29 15:47:06 | in_vehicle | 100 | 13.643638184305 | |
| 69910 | 251029_783924_16651731_1501 | 783924 | (not set) | (not set) | 38.523342565957 | -77.36848836553 | 35.245 | 2025-10-29 15:47:41 | in_vehicle | 100 | 15.561436605363 | |
| 69911 | 251029_788812_16657534_1526 | 788812 | (not set) | (not set) | 38.91556562004 | -77.036810792208 | 1.5296 | 2025-10-29 15:48:05 | unknown | 100 | 1.747923502642 | |
| 69912 | 251029_788812_16657534_1526 | 788812 | (not set) | (not set) | 38.916449967859 | -77.036401221127 | 1.5944 | 2025-10-29 15:48:27 | unknown | 100 | 2.7179986946454 | |
| 69913 | 251029_788403_16657020_1540 | 788403 | (not set) | (not set) | 39.027646938943 | -77.073167760177 | 3.3843 | 2025-10-29 15:48:59 | in_vehicle | 100 | -0.44703925898772 | |
| 69914 | 251029_786078_16654342_1530 | 786078 | (not set) | (not set) | 39.354182161819 | -76.522406319321 | 5.0198 | 2025-10-29 15:49:20 | in_vehicle | 100 | 6.1736121666205 | |
| 69915 | 251029_783924_16651731_1501 | 783924 | (not set) | (not set) | 38.487687802616 | -77.390090906786 | 37.9987 | 2025-10-29 15:49:55 | in_vehicle | 100 | 13.236832458627 | |
| 69916 | 251029_788403_16657020_1540 | 788403 | (not set) | (not set) | 39.026916886254 | -77.084487533136 | 3.3843 | 2025-10-29 15:49:59 | in_vehicle | 100 | -0.44703925898772 | |
| 69917 | 251029_789790_16452813_1550 | 789790 | (not set) | (not set) | 39.051715 | -77.4351917 | 0.1159 | 2025-10-29 15:50:27 | still | 100 | 2.7850545834935 | |
| 69918 | 251029_783924_16651731_1501 | 783924 | (not set) | (not set) | 38.475462716591 | -77.401270169909 | 39.0461 | 2025-10-29 15:50:59 | in_vehicle | 100 | 12.436632185038 | |
| 69919 | 251029_783924_16651731_1501 | 783924 | (not set) | (not set) | 38.472513001121 | -77.403328536476 | 39.2782 | 2025-10-29 15:51:12 | in_vehicle | 100 | 12.508158466477 | |
| 69920 | 251029_780809_16648486_1509 | 780809 | (not set) | (not set) | 38.925333688263 | -77.237893772007 | 12.836 | 2025-10-29 15:51:31 | in_vehicle | 100 | 10.268491778948 |